Time;durP1;ratioP1;P1;durP2;ratioP2;P2;SDS_P1;SDS_P2;PMS_P1;PMS_P2;Temp;Humidity;BMP_temperature;BMP_pressure;BME280_temperature;BME280_humidity;BME280_pressure;Samples;Min_cycle;Max_cycle;Signal;HPM_P1;HPM_P2
2022/09/13 00:01:54;;;;;;;;;;;;;;;18.64;44.88;99486.28;4470517;32;33019;-63
2022/09/13 00:04:22;;;;;;;;;;;;;;;18.62;44.63;99486.47;4478387;32;33683;-64
2022/09/13 00:06:49;;;;;;;;;;;;;;;18.57;44.84;99488.00;4477966;31;32959;-63
2022/09/13 00:09:16;;;;;;;;;;;;;;;18.58;44.41;99486.97;4481462;32;34044;-64
2022/09/13 00:11:44;;;;;;;;;;;;;;;18.48;44.55;99489.03;4480602;31;34260;-63
2022/09/13 00:14:11;;;;;;;;;;;;;;;18.41;44.67;99488.88;4482867;32;34622;-63
2022/09/13 00:16:38;;;;;;;;;;;;;;;18.38;44.64;99489.22;4473149;31;34006;-63
2022/09/13 00:19:06;;;;;;;;;;;;;;;18.24;45.07;99498.03;4475608;32;35450;-63
2022/09/13 00:21:33;;;;;;;;;;;;;;;18.22;44.71;99489.22;4476587;32;35043;-63
2022/09/13 00:24:01;;;;;;;;;;;;;;;18.22;44.80;99491.94;4473808;31;33394;-63
2022/09/13 00:26:28;;;;;;;;;;;;;;;18.16;44.72;99491.59;4479370;31;34333;-63
2022/09/13 00:28:56;;;;;;;;;;;;;;;18.08;44.98;99485.34;4481788;31;34507;-62
2022/09/13 00:31:24;;;;;;;;;;;;;;;17.87;45.79;99481.25;4478542;32;34174;-62
2022/09/13 00:33:51;;;;;;;;;;;;;;;17.76;45.90;99484.28;4482515;31;34900;-63
2022/09/13 00:36:18;;;;;;;;;;;;;;;17.78;45.79;99484.97;4474288;32;34270;-62
2022/09/13 00:38:46;;;;;;;;;;;;;;;17.81;45.54;99479.22;4479648;31;37589;-62
2022/09/13 00:41:14;;;;;;;;;;;;;;;17.69;46.05;99484.09;4479346;32;34663;-63
2022/09/13 00:43:46;;;;;;;;;;;;;;;17.25;47.29;99479.94;4479903;31;33592;-63
2022/09/13 00:46:19;;;;;;;;;;;;;;;17.36;46.88;99482.31;4479231;32;34103;-62
2022/09/13 00:48:47;;;;;;;;;;;;;;;17.21;47.46;99485.66;4467110;32;34359;-63
2022/09/13 00:51:14;;;;;;;;;;;;;;;17.26;47.39;99485.16;4475339;31;35483;-63
2022/09/13 00:53:43;;;;;;;;;;;;;;;17.27;47.04;99475.19;4478936;32;32946;-63
2022/09/13 00:56:21;;;;;;;;;;;;;;;17.28;46.54;99479.59;4477288;31;34038;-63
2022/09/13 00:58:50;;;;;;;;;;;;;;;17.31;46.55;99477.41;4480230;32;36120;-63
2022/09/13 01:01:18;;;;;;;;;;;;;;;17.26;46.47;99484.31;4479722;31;33802;-63
2022/09/13 01:03:45;;;;;;;;;;;;;;;17.31;46.25;99480.13;4478112;32;33575;-63
2022/09/13 01:06:17;;;;;;;;;;;;;;;17.22;46.62;99478.38;4466242;32;34100;-63
2022/09/13 01:08:45;;;;;;;;;;;;;;;17.16;46.53;99479.03;4479891;32;35488;-62
2022/09/13 01:11:16;;;;;;;;;;;;;;;17.16;46.40;99479.88;4479677;31;35349;-62
2022/09/13 01:13:44;;;;;;;;;;;;;;;17.21;46.04;99479.41;4480932;32;33186;-63
2022/09/13 01:16:11;;;;;;;;;;;;;;;17.17;45.86;99480.72;4473900;32;35290;-63
2022/09/13 01:18:38;;;;;;;;;;;;;;;16.98;46.68;99481.81;4480383;32;34034;-62
2022/09/13 01:21:25;;;;;;;;;;;;;;;16.99;46.37;99484.38;4482373;32;35195;-62
2022/09/13 01:24:11;;;;;;;;;;;;;;;16.86;46.48;99483.16;4483073;32;34516;-62
2022/09/13 01:26:44;;;;;;;;;;;;;;;16.81;46.75;99478.19;4481894;32;34492;-62
2022/09/13 01:29:27;;;;;;;;;;;;;;;16.86;46.56;99481.28;4484649;32;34310;-62
2022/09/13 01:31:57;;;;;;;;;;;;;;;16.98;46.64;99473.72;4484126;32;34317;-62
2022/09/13 01:34:32;;;;;;;;;;;;;;;17.08;46.78;99474.47;4483511;32;32641;-62
2022/09/13 01:37:14;;;;;;;;;;;;;;;16.90;46.93;99479.09;4478717;32;34374;-62
2022/09/13 01:40:11;;;;;;;;;;;;;;;16.95;46.48;99474.03;4483268;32;34805;-61
2022/09/13 01:42:46;;;;;;;;;;;;;;;16.96;46.77;99478.47;4440169;32;34459;-62
2022/09/13 01:45:22;;;;;;;;;;;;;;;16.84;46.41;99475.19;4482567;32;31964;-62
2022/09/13 01:47:55;;;;;;;;;;;;;;;16.80;46.58;99471.12;4480980;32;34233;-62
2022/09/13 01:50:33;;;;;;;;;;;;;;;17.06;46.52;99464.81;4476833;32;34007;-62
2022/09/13 01:53:18;;;;;;;;;;;;;;;16.97;46.67;99475.56;4482413;32;34616;-62
2022/09/13 01:55:47;;;;;;;;;;;;;;;17.15;46.03;99464.69;4477832;32;33700;-63
2022/09/13 01:58:27;;;;;;;;;;;;;;;17.12;45.88;99464.16;4468784;32;34237;-62
2022/09/13 02:01:17;;;;;;;;;;;;;;;17.02;45.80;99463.44;4473933;32;34107;-62
2022/09/13 02:03:47;;;;;;;;;;;;;;;16.88;46.19;99465.72;4478304;32;34522;-62
2022/09/13 02:06:17;;;;;;;;;;;;;;;16.69;47.36;99468.66;4480390;32;32532;-62
2022/09/13 02:08:45;;;;;;;;;;;;;;;16.80;46.71;99462.16;4468991;32;34429;-63
2022/09/13 02:11:13;;;;;;;;;;;;;;;16.84;46.51;99461.66;4477389;32;34038;-62
2022/09/13 02:13:42;;;;;;;;;;;;;;;16.80;46.52;99454.91;4482754;32;34472;-62
2022/09/13 02:16:11;;;;;;;;;;;;;;;16.88;46.53;99462.19;4477706;32;33103;-63
2022/09/13 02:18:40;;;;;;;;;;;;;;;16.90;46.08;99455.62;4482907;32;32627;-62
2022/09/13 02:21:27;;;;;;;;;;;;;;;16.89;46.18;99453.94;4485483;32;35431;-62
2022/09/13 02:24:00;;;;;;;;;;;;;;;16.89;46.19;99453.09;4472121;32;34483;-63
2022/09/13 02:26:28;;;;;;;;;;;;;;;16.73;46.55;99453.81;4482820;32;34425;-62
2022/09/13 02:28:56;;;;;;;;;;;;;;;16.66;46.88;99448.22;4468520;32;32938;-62
2022/09/13 02:31:25;;;;;;;;;;;;;;;16.64;46.72;99441.28;4480559;32;34079;-63
2022/09/13 02:33:54;;;;;;;;;;;;;;;16.62;46.99;99443.28;4469233;32;34410;-62
2022/09/13 02:36:23;;;;;;;;;;;;;;;16.64;47.22;99443.97;4466925;32;33341;-62
2022/09/13 02:38:54;;;;;;;;;;;;;;;16.58;46.87;99447.31;4468857;32;32613;-63
2022/09/13 02:41:26;;;;;;;;;;;;;;;16.52;46.85;99444.25;4468793;32;34110;-62
2022/09/13 02:44:00;;;;;;;;;;;;;;;16.67;47.11;99446.34;4469613;32;34674;-63
2022/09/13 02:46:42;;;;;;;;;;;;;;;16.62;46.79;99440.56;4476958;32;33496;-63
2022/09/13 02:49:39;;;;;;;;;;;;;;;16.59;46.75;99444.44;4483413;32;34019;-63
2022/09/13 02:52:13;;;;;;;;;;;;;;;16.57;46.59;99435.66;4468997;31;35491;-62
2022/09/13 02:54:49;;;;;;;;;;;;;;;16.61;46.32;99438.91;4469153;32;34310;-63
2022/09/13 02:57:21;;;;;;;;;;;;;;;16.65;46.53;99430.28;4473081;32;34598;-63
2022/09/13 02:59:48;;;;;;;;;;;;;;;16.68;46.18;99435.38;4481790;32;33984;-63
2022/09/13 03:02:16;;;;;;;;;;;;;;;16.64;46.17;99438.56;4479146;32;34507;-63
2022/09/13 03:04:43;;;;;;;;;;;;;;;16.67;46.11;99435.56;4471075;32;34074;-63
2022/09/13 03:07:11;;;;;;;;;;;;;;;16.67;46.15;99428.28;4478131;32;33103;-63
2022/09/13 03:09:39;;;;;;;;;;;;;;;16.72;46.32;99425.09;4483209;32;34255;-63
2022/09/13 03:12:28;;;;;;;;;;;;;;;16.76;46.43;99416.53;4474655;32;34426;-62
2022/09/13 03:14:56;;;;;;;;;;;;;;;16.84;45.92;99418.41;4474640;32;34150;-62
2022/09/13 03:17:29;;;;;;;;;;;;;;;16.76;45.67;99427.34;4479429;32;32025;-62
2022/09/13 03:20:09;;;;;;;;;;;;;;;16.71;45.84;99418.84;4483632;32;35676;-61
2022/09/13 03:22:56;;;;;;;;;;;;;;;16.75;45.68;99416.69;4483221;32;34202;-62
2022/09/13 03:25:26;;;;;;;;;;;;;;;16.73;45.65;99418.69;4485166;32;35135;-62
2022/09/13 03:28:10;;;;;;;;;;;;;;;16.69;46.03;99415.47;4446090;32;31552;-69
2022/09/13 03:30:37;;;;;;;;;;;;;;;16.82;45.76;99415.06;4482041;32;33539;-63
2022/09/13 03:33:06;;;;;;;;;;;;;;;16.61;47.03;99417.28;4466828;32;33938;-63
2022/09/13 03:35:36;;;;;;;;;;;;;;;16.65;46.13;99407.84;4476338;32;35118;-63
2022/09/13 03:38:03;;;;;;;;;;;;;;;16.24;47.07;99405.78;4474831;32;33370;-63
2022/09/13 03:40:39;;;;;;;;;;;;;;;16.33;46.73;99409.34;4480234;32;33989;-63
2022/09/13 03:43:13;;;;;;;;;;;;;;;16.27;46.59;99405.44;4470482;32;33089;-62
2022/09/13 03:45:48;;;;;;;;;;;;;;;16.15;47.04;99397.78;4471603;32;33841;-62
2022/09/13 03:48:16;;;;;;;;;;;;;;;16.25;46.77;99398.50;4481923;32;33707;-62
2022/09/13 03:50:44;;;;;;;;;;;;;;;16.32;46.66;99402.25;4467736;32;33892;-63
2022/09/13 03:53:12;;;;;;;;;;;;;;;16.39;46.18;99397.91;4471522;32;33579;-63
2022/09/13 03:55:41;;;;;;;;;;;;;;;16.39;46.57;99399.78;4473894;32;33024;-62
2022/09/13 03:58:12;;;;;;;;;;;;;;;16.39;46.80;99397.91;4469794;32;33601;-62
2022/09/13 04:00:40;;;;;;;;;;;;;;;16.49;46.30;99398.63;4482416;32;34489;-62
2022/09/13 04:03:08;;;;;;;;;;;;;;;16.47;45.84;99397.97;4479607;32;34177;-62
2022/09/13 04:05:35;;;;;;;;;;;;;;;16.50;45.94;99402.19;4477929;32;34438;-62
2022/09/13 04:08:04;;;;;;;;;;;;;;;16.50;46.03;99399.47;4481458;32;33695;-62
2022/09/13 04:10:32;;;;;;;;;;;;;;;16.57;46.50;99402.41;4479780;32;34163;-62
2022/09/13 04:12:59;;;;;;;;;;;;;;;16.51;46.04;99404.72;4481063;32;35231;-62
2022/09/13 04:15:27;;;;;;;;;;;;;;;16.47;46.38;99400.66;4477071;32;33841;-62
2022/09/13 04:17:54;;;;;;;;;;;;;;;16.52;45.89;99409.13;4483126;32;32187;-63
2022/09/13 04:20:23;;;;;;;;;;;;;;;16.54;45.89;99399.00;4475078;32;35276;-63
2022/09/13 04:22:54;;;;;;;;;;;;;;;16.49;46.33;99409.44;4478232;31;33730;-63
2022/09/13 04:25:22;;;;;;;;;;;;;;;16.65;45.65;99410.53;4473615;32;35499;-63
2022/09/13 04:27:52;;;;;;;;;;;;;;;16.67;45.30;99413.94;4480944;32;33691;-63
2022/09/13 04:30:20;;;;;;;;;;;;;;;16.69;45.39;99415.47;4476575;31;34973;-63
2022/09/13 04:32:48;;;;;;;;;;;;;;;16.71;45.21;99415.28;4477760;32;33174;-63
2022/09/13 04:35:16;;;;;;;;;;;;;;;16.56;45.95;99409.62;4474649;32;34938;-63
2022/09/13 04:37:44;;;;;;;;;;;;;;;16.62;45.68;99414.41;4473656;32;34363;-63
2022/09/13 04:40:12;;;;;;;;;;;;;;;16.72;45.52;99411.56;4478816;32;33867;-63
2022/09/13 04:42:40;;;;;;;;;;;;;;;16.70;45.85;99413.63;4478369;31;34227;-63
2022/09/13 04:45:07;;;;;;;;;;;;;;;16.68;46.36;99412.91;4473375;32;34046;-63
2022/09/13 04:47:35;;;;;;;;;;;;;;;16.74;47.09;99417.66;4478138;31;34419;-63
2022/09/13 04:50:02;;;;;;;;;;;;;;;16.83;46.39;99411.34;4473381;32;34097;-63
2022/09/13 04:52:29;;;;;;;;;;;;;;;16.87;45.79;99420.78;4479796;31;34210;-62
2022/09/13 04:55:00;;;;;;;;;;;;;;;16.88;45.60;99416.22;4476711;32;34885;-62
2022/09/13 04:57:27;;;;;;;;;;;;;;;16.82;46.74;99416.88;4466244;31;32832;-62
2022/09/13 04:59:55;;;;;;;;;;;;;;;16.84;46.48;99421.13;4480652;32;33617;-62
2022/09/13 05:02:22;;;;;;;;;;;;;;;17.05;45.52;99415.28;4480778;32;34092;-62
2022/09/13 05:04:49;;;;;;;;;;;;;;;16.99;46.23;99418.66;4479503;31;33896;-62
2022/09/13 05:07:17;;;;;;;;;;;;;;;17.08;45.49;99416.81;4477277;32;34793;-62
2022/09/13 05:09:44;;;;;;;;;;;;;;;17.12;45.48;99415.50;4480470;31;32898;-62
2022/09/13 05:12:12;;;;;;;;;;;;;;;17.02;47.22;99417.50;4479478;32;34423;-62
2022/09/13 05:14:39;;;;;;;;;;;;;;;17.26;46.43;99409.44;4467835;32;34040;-62
2022/09/13 05:17:06;;;;;;;;;;;;;;;17.30;46.50;99413.47;4475133;32;32000;-62
2022/09/13 05:19:34;;;;;;;;;;;;;;;17.41;45.55;99415.88;4479864;31;34046;-62
2022/09/13 05:22:01;;;;;;;;;;;;;;;18.10;43.55;99419.13;4477395;32;33961;-62
2022/09/13 05:24:29;;;;;;;;;;;;;;;18.37;42.93;99425.22;4480267;32;33047;-62
2022/09/13 05:26:56;;;;;;;;;;;;;;;18.44;42.63;99426.19;4481011;31;34370;-62
2022/09/13 05:29:23;;;;;;;;;;;;;;;18.37;42.99;99417.09;4479409;32;34205;-62
2022/09/13 05:31:51;;;;;;;;;;;;;;;18.23;42.89;99415.91;4473005;32;34546;-63
2022/09/13 05:34:18;;;;;;;;;;;;;;;18.20;43.13;99420.81;4478912;32;34482;-62
2022/09/13 05:36:46;;;;;;;;;;;;;;;18.12;43.73;99422.53;4474132;32;33226;-62
2022/09/13 05:39:21;;;;;;;;;;;;;;;17.74;44.27;99421.31;4479772;32;33905;-61
2022/09/13 05:42:08;;;;;;;;;;;;;;;17.76;44.22;99422.00;4466894;32;34068;-61
2022/09/13 05:44:35;;;;;;;;;;;;;;;17.60;44.48;99425.56;4479862;32;33239;-61
2022/09/13 05:47:03;;;;;;;;;;;;;;;17.46;44.94;99418.06;4476809;32;33414;-61
2022/09/13 05:49:30;;;;;;;;;;;;;;;17.51;45.31;99423.00;4477175;32;33425;-61
2022/09/13 05:51:57;;;;;;;;;;;;;;;17.53;45.33;99423.66;4472901;31;34429;-62
2022/09/13 05:54:24;;;;;;;;;;;;;;;17.43;45.76;99422.00;4475273;32;34062;-61
2022/09/13 05:56:56;;;;;;;;;;;;;;;17.55;45.81;99433.31;4480693;32;34683;-61
2022/09/13 05:59:23;;;;;;;;;;;;;;;17.41;46.01;99424.00;4478080;31;34712;-61
2022/09/13 06:01:51;;;;;;;;;;;;;;;17.59;45.44;99431.13;4481190;32;35157;-62
2022/09/13 06:04:18;;;;;;;;;;;;;;;17.56;46.19;99432.31;4473067;31;35082;-61
2022/09/13 06:06:46;;;;;;;;;;;;;;;17.82;46.73;99437.63;4476948;32;33391;-61
2022/09/13 06:09:13;;;;;;;;;;;;;;;18.09;46.00;99439.13;4479541;31;34359;-62
2022/09/13 06:11:40;;;;;;;;;;;;;;;17.98;48.46;99441.31;4477921;32;34389;-61
2022/09/13 06:14:08;;;;;;;;;;;;;;;18.23;45.03;99432.16;4476250;31;34402;-61
2022/09/13 06:16:35;;;;;;;;;;;;;;;18.31;47.08;99424.03;4476929;32;34978;-61
2022/09/13 06:19:03;;;;;;;;;;;;;;;18.72;44.96;99431.22;4468469;32;34417;-61
2022/09/13 06:21:30;;;;;;;;;;;;;;;19.13;44.59;99425.62;4474302;32;34187;-62
2022/09/13 06:23:58;;;;;;;;;;;;;;;19.34;44.70;99433.16;4475498;32;33136;-62
2022/09/13 06:26:26;;;;;;;;;;;;;;;19.52;44.61;99431.84;4480175;31;34203;-61
2022/09/13 06:28:54;;;;;;;;;;;;;;;19.68;44.02;99430.94;4474186;31;33865;-62
2022/09/13 06:31:23;;;;;;;;;;;;;;;19.87;45.32;99421.44;4475867;31;34145;-64
2022/09/13 06:33:56;;;;;;;;;;;;;;;20.07;46.35;99432.66;4481298;32;34267;-61
2022/09/13 06:36:23;;;;;;;;;;;;;;;20.06;45.74;99427.38;4478372;31;33384;-62
2022/09/13 06:38:51;;;;;;;;;;;;;;;20.22;43.70;99422.66;4477111;32;32946;-61
2022/09/13 06:41:19;;;;;;;;;;;;;;;20.42;45.28;99422.13;4472163;31;35335;-62
2022/09/13 06:43:46;;;;;;;;;;;;;;;20.39;45.33;99426.06;4466042;32;33915;-62
2022/09/13 06:46:15;;;;;;;;;;;;;;;20.50;45.13;99422.03;4477609;32;33414;-62
2022/09/13 06:48:47;;;;;;;;;;;;;;;20.53;44.71;99424.41;4476468;32;33550;-61
2022/09/13 06:51:16;;;;;;;;;;;;;;;20.67;43.72;99418.12;4474866;32;34532;-62
2022/09/13 06:53:45;;;;;;;;;;;;;;;20.63;41.88;99421.41;4476767;31;34127;-62
2022/09/13 06:56:13;;;;;;;;;;;;;;;20.55;44.45;99419.63;4479016;32;33487;-62
2022/09/13 06:58:42;;;;;;;;;;;;;;;20.47;44.11;99419.69;4477886;31;33879;-62
2022/09/13 07:01:13;;;;;;;;;;;;;;;20.76;42.84;99428.91;4475730;32;34765;-62
2022/09/13 07:03:42;;;;;;;;;;;;;;;20.65;44.11;99432.94;4478276;31;34847;-62
2022/09/13 07:06:10;;;;;;;;;;;;;;;20.54;40.72;99438.84;4479435;32;33184;-62
2022/09/13 07:08:38;;;;;;;;;;;;;;;20.67;41.29;99434.47;4478679;31;33086;-61
2022/09/13 07:11:06;;;;;;;;;;;;;;;20.68;41.48;99441.56;4477416;32;34210;-62
2022/09/13 07:13:33;;;;;;;;;;;;;;;20.65;39.06;99441.94;4476714;31;34288;-62
2022/09/13 07:16:01;;;;;;;;;;;;;;;20.23;39.73;99446.09;4476837;32;34653;-62
2022/09/13 07:18:29;;;;;;;;;;;;;;;20.54;40.99;99444.28;4475591;32;32763;-62
2022/09/13 07:21:00;;;;;;;;;;;;;;;20.33;41.75;99445.81;4478970;31;34139;-62
2022/09/13 07:23:28;;;;;;;;;;;;;;;20.42;39.28;99446.59;4478251;32;35419;-62
2022/09/13 07:26:00;;;;;;;;;;;;;;;20.63;38.93;99443.16;4480964;31;33395;-62
2022/09/13 07:28:29;;;;;;;;;;;;;;;20.54;38.99;99450.56;4479856;32;34132;-62
2022/09/13 07:31:08;;;;;;;;;;;;;;;20.81;41.22;99449.06;4476775;31;32893;-62
2022/09/13 07:33:36;;;;;;;;;;;;;;;20.64;38.97;99453.88;4477195;32;34976;-61
2022/09/13 07:36:07;;;;;;;;;;;;;;;20.43;39.21;99459.16;4475950;31;36700;-61
2022/09/13 07:38:35;;;;;;;;;;;;;;;20.50;39.61;99449.22;4477845;32;33168;-62
2022/09/13 07:41:05;;;;;;;;;;;;;;;20.70;39.15;99438.66;4473491;31;34363;-61
2022/09/13 07:43:33;;;;;;;;;;;;;;;20.57;40.83;99443.91;4472841;32;33810;-64
2022/09/13 07:46:04;;;;;;;;;;;;;;;20.08;40.11;99450.63;4480097;32;34203;-64
2022/09/13 07:48:32;;;;;;;;;;;;;;;20.33;39.74;99455.84;4480674;31;33891;-64
2022/09/13 07:51:01;;;;;;;;;;;;;;;20.23;39.93;99454.22;4478276;32;35493;-62
2022/09/13 07:53:29;;;;;;;;;;;;;;;20.93;41.61;99452.19;4478069;31;33041;-62
2022/09/13 07:56:06;;;;;;;;;;;;;;;20.45;39.63;99457.09;4479458;32;33517;-62
2022/09/13 07:58:34;;;;;;;;;;;;;;;20.23;39.73;99456.12;4474813;31;36559;-62
2022/09/13 08:01:06;;;;;;;;;;;;;;;20.18;40.11;99458.53;4475316;32;34812;-62
2022/09/13 08:03:34;;;;;;;;;;;;;;;20.02;40.60;99454.06;4480561;31;33366;-61
2022/09/13 08:06:01;;;;;;;;;;;;;;;20.48;40.08;99443.97;4469028;32;34631;-61
2022/09/13 08:08:29;;;;;;;;;;;;;;;20.89;40.41;99450.84;4472968;32;34296;-62
2022/09/13 08:10:58;;;;;;;;;;;;;;;21.13;40.45;99449.72;4477560;32;32830;-62
2022/09/13 08:13:25;;;;;;;;;;;;;;;21.03;39.31;99446.44;4477509;32;33230;-62
2022/09/13 08:15:52;;;;;;;;;;;;;;;19.98;41.25;99450.03;4482226;32;34320;-62
2022/09/13 08:18:20;;;;;;;;;;;;;;;20.48;40.45;99451.25;4477199;32;35297;-62
2022/09/13 08:20:47;;;;;;;;;;;;;;;21.07;40.19;99456.75;4476301;32;32922;-62
2022/09/13 08:23:14;;;;;;;;;;;;;;;20.73;40.46;99456.47;4482083;32;35450;-61
2022/09/13 08:25:42;;;;;;;;;;;;;;;21.08;40.09;99455.69;4483304;32;32295;-62
2022/09/13 08:28:13;;;;;;;;;;;;;;;20.86;41.02;99449.34;4476534;32;34206;-61
2022/09/13 08:30:42;;;;;;;;;;;;;;;20.90;40.58;99447.94;4473641;32;34511;-62
2022/09/13 08:33:10;;;;;;;;;;;;;;;21.13;40.92;99450.56;4477380;32;32840;-61
2022/09/13 08:35:37;;;;;;;;;;;;;;;20.96;42.04;99448.22;4481100;32;32240;-62
2022/09/13 08:38:05;;;;;;;;;;;;;;;21.03;40.28;99446.44;4482753;32;34036;-62
2022/09/13 08:40:33;;;;;;;;;;;;;;;21.22;41.43;99444.97;4481928;32;34123;-62
2022/09/13 08:43:00;;;;;;;;;;;;;;;21.31;40.01;99447.41;4479748;32;34349;-62
2022/09/13 08:45:27;;;;;;;;;;;;;;;21.52;42.57;99443.91;4473229;32;34637;-62
2022/09/13 08:47:56;;;;;;;;;;;;;;;21.27;40.60;99440.66;4480371;32;35406;-62
2022/09/13 08:50:27;;;;;;;;;;;;;;;21.32;39.70;99440.09;4484341;32;34410;-62
2022/09/13 08:53:03;;;;;;;;;;;;;;;22.02;39.61;99443.97;4483927;32;34905;-62
2022/09/13 08:55:36;;;;;;;;;;;;;;;22.14;38.24;99442.41;4481083;32;33421;-62
2022/09/13 08:58:08;;;;;;;;;;;;;;;21.93;38.77;99437.84;4472756;32;32419;-62
2022/09/13 09:00:39;;;;;;;;;;;;;;;21.91;37.27;99437.19;4479842;32;35275;-62
2022/09/13 09:03:09;;;;;;;;;;;;;;;21.81;36.65;99432.06;4477706;32;35151;-62
2022/09/13 09:05:43;;;;;;;;;;;;;;;21.59;38.12;99442.09;4481781;32;33494;-62
2022/09/13 09:08:24;;;;;;;;;;;;;;;21.91;36.88;99442.63;4476958;32;32731;-62
2022/09/13 09:10:52;;;;;;;;;;;;;;;21.13;37.66;99433.38;4482867;32;34235;-62
2022/09/13 09:13:30;;;;;;;;;;;;;;;21.31;37.55;99424.78;4481940;32;34123;-61
2022/09/13 09:16:18;;;;;;;;;;;;;;;20.88;39.63;99432.84;4478960;32;33385;-62
2022/09/13 09:18:45;;;;;;;;;;;;;;;21.74;38.23;99428.44;4451637;31;32750;-61
2022/09/13 09:21:16;;;;;;;;;;;;;;;21.37;38.93;99432.22;4481826;32;34760;-62
2022/09/13 09:23:50;;;;;;;;;;;;;;;21.24;37.41;99430.16;4484705;32;34650;-62
2022/09/13 09:26:18;;;;;;;;;;;;;;;20.78;37.72;99426.84;4481579;32;32262;-62
2022/09/13 09:28:56;;;;;;;;;;;;;;;20.75;38.25;99419.06;4477515;32;34157;-61
2022/09/13 09:31:23;;;;;;;;;;;;;;;20.84;37.39;99412.50;4479079;32;35491;-62
2022/09/13 09:33:50;;;;;;;;;;;;;;;21.08;37.54;99416.78;4482102;32;35277;-62
2022/09/13 09:36:39;;;;;;;;;;;;;;;21.45;36.47;99413.06;4479177;32;33519;-62
2022/09/13 09:39:09;;;;;;;;;;;;;;;21.96;35.69;99406.59;4430192;32;32461;-62
2022/09/13 09:41:37;;;;;;;;;;;;;;;21.74;37.38;99405.81;4476751;32;34449;-62
2022/09/13 09:44:09;;;;;;;;;;;;;;;22.07;37.07;99415.09;4484276;32;34547;-62
2022/09/13 09:46:37;;;;;;;;;;;;;;;21.76;37.29;99411.88;4475688;32;34568;-61
2022/09/13 09:50:07;;;;;;;;;;;;;;;21.99;38.22;99409.81;4474904;32;35255;-62
2022/09/13 09:51:55;;;;;;;;;;;;;;;21.90;37.36;99402.81;4470825;32;34115;-62
2022/09/13 09:54:23;;;;;;;;;;;;;;;22.38;36.20;99399.44;4476897;32;33207;-61
2022/09/13 09:56:51;;;;;;;;;;;;;;;22.85;35.72;99395.06;4476877;32;32184;-61
2022/09/13 09:59:27;;;;;;;;;;;;;;;22.64;36.75;99388.69;4482616;32;34245;-62
2022/09/13 10:01:56;;;;;;;;;;;;;;;22.99;36.29;99381.34;4480999;32;34222;-61
2022/09/13 10:04:24;;;;;;;;;;;;;;;23.43;34.92;99379.97;4484224;32;33051;-62
2022/09/13 10:07:10;;;;;;;;;;;;;;;23.64;35.30;99368.03;4480505;32;33273;-62
2022/09/13 10:09:49;;;;;;;;;;;;;;;22.42;36.13;99373.44;4482568;32;32641;-61
2022/09/13 10:12:24;;;;;;;;;;;;;;;22.25;36.27;99375.66;4475969;32;35015;-61
2022/09/13 10:14:57;;;;;;;;;;;;;;;22.77;36.91;99369.66;4484050;32;32980;-62
2022/09/13 10:17:25;;;;;;;;;;;;;;;22.46;36.08;99366.56;4473281;32;33272;-61
2022/09/13 10:19:53;;;;;;;;;;;;;;;22.79;35.12;99367.59;4475757;32;32844;-62
2022/09/13 10:22:21;;;;;;;;;;;;;;;23.32;34.30;99368.84;4478327;32;34298;-62
2022/09/13 10:24:49;;;;;;;;;;;;;;;23.64;34.08;99364.47;4479976;32;34276;-62
2022/09/13 10:27:32;;;;;;;;;;;;;;;23.74;35.11;99370.41;4480153;32;33009;-61
2022/09/13 10:29:59;;;;;;;;;;;;;;;23.33;34.53;99359.59;4473958;32;34134;-62
2022/09/13 10:32:27;;;;;;;;;;;;;;;22.91;33.83;99356.91;4474374;32;35047;-62
2022/09/13 10:34:54;;;;;;;;;;;;;;;23.60;33.13;99355.88;4474846;32;34672;-62
2022/09/13 10:37:23;;;;;;;;;;;;;;;24.14;32.46;99346.66;4476847;32;32216;-62
2022/09/13 10:40:04;;;;;;;;;;;;;;;23.73;33.15;99348.78;4475243;32;34892;-62
2022/09/13 10:42:31;;;;;;;;;;;;;;;24.14;31.98;99341.19;4482020;32;33059;-62
2022/09/13 10:45:00;;;;;;;;;;;;;;;24.28;31.63;99342.00;4470261;32;33660;-63
2022/09/13 10:47:36;;;;;;;;;;;;;;;24.01;31.71;99351.25;4459961;32;33974;-64
2022/09/13 10:50:17;;;;;;;;;;;;;;;24.14;32.00;99346.66;4478582;32;34352;-63
2022/09/13 10:52:55;;;;;;;;;;;;;;;24.17;33.37;99348.09;4482719;32;32844;-63
2022/09/13 10:55:24;;;;;;;;;;;;;;;24.33;31.98;99346.81;4468497;32;33651;-64
2022/09/13 10:57:52;;;;;;;;;;;;;;;24.45;31.92;99355.22;4468519;32;32998;-64
2022/09/13 11:00:21;;;;;;;;;;;;;;;23.61;33.01;99351.25;4477534;32;34133;-63
2022/09/13 11:03:08;;;;;;;;;;;;;;;24.16;31.59;99346.41;4474276;32;35131;-64
2022/09/13 11:05:38;;;;;;;;;;;;;;;24.11;31.97;99343.50;4470437;31;32868;-63
2022/09/13 11:08:11;;;;;;;;;;;;;;;24.56;31.87;99340.91;4475690;32;33634;-63
2022/09/13 11:10:41;;;;;;;;;;;;;;;23.93;32.82;99344.13;4476786;32;35478;-63
2022/09/13 11:13:18;;;;;;;;;;;;;;;24.29;33.26;99337.34;4471618;32;33791;-63
2022/09/13 11:15:52;;;;;;;;;;;;;;;24.09;31.73;99340.13;4479506;32;33582;-63
2022/09/13 11:18:36;;;;;;;;;;;;;;;24.38;31.56;99334.19;4467424;32;34023;-63
2022/09/13 11:21:06;;;;;;;;;;;;;;;24.87;31.22;99332.75;4479149;32;33531;-63
2022/09/13 11:23:52;;;;;;;;;;;;;;;24.99;30.59;99338.41;4469009;32;32991;-63
2022/09/13 11:26:23;;;;;;;;;;;;;;;25.06;31.56;99331.00;4480434;32;34324;-63
2022/09/13 11:28:57;;;;;;;;;;;;;;;25.22;30.15;99329.66;4472859;32;32198;-63
2022/09/13 11:31:29;;;;;;;;;;;;;;;25.32;31.07;99318.22;4474271;32;33671;-63
2022/09/13 11:34:12;;;;;;;;;;;;;;;25.18;31.21;99320.22;4473402;32;34631;-63
2022/09/13 11:36:49;;;;;;;;;;;;;;;25.06;31.46;99314.56;4475541;32;35429;-63
2022/09/13 11:39:29;;;;;;;;;;;;;;;24.84;31.79;99316.78;4468651;32;32108;-63
2022/09/13 11:42:01;;;;;;;;;;;;;;;24.78;31.91;99316.81;4474600;32;34164;-63
2022/09/13 11:44:44;;;;;;;;;;;;;;;25.00;31.07;99311.88;4465853;32;34400;-63
2022/09/13 11:47:21;;;;;;;;;;;;;;;25.14;31.44;99309.94;4471284;32;34521;-63
2022/09/13 11:50:01;;;;;;;;;;;;;;;25.22;31.08;99296.81;4472391;32;32208;-63
2022/09/13 11:52:28;;;;;;;;;;;;;;;25.28;31.31;99301.41;4477019;32;34306;-63
2022/09/13 11:54:59;;;;;;;;;;;;;;;24.04;31.81;99297.00;4465651;32;34993;-62
2022/09/13 11:57:31;;;;;;;;;;;;;;;24.31;32.15;99296.97;4479582;32;34701;-63
2022/09/13 12:00:07;;;;;;;;;;;;;;;24.73;31.32;99286.53;4472220;31;33009;-63
2022/09/13 12:02:39;;;;;;;;;;;;;;;24.72;30.57;99287.56;4464802;32;33297;-63
2022/09/13 12:05:18;;;;;;;;;;;;;;;24.67;31.82;99288.22;4466698;31;34199;-63
2022/09/13 12:08:01;;;;;;;;;;;;;;;25.00;31.11;99288.06;4478188;32;34122;-63
2022/09/13 12:10:32;;;;;;;;;;;;;;;24.56;31.68;99294.41;4469288;32;33389;-63
2022/09/13 12:13:01;;;;;;;;;;;;;;;24.89;31.20;99285.19;4473819;32;33980;-63
2022/09/13 12:15:31;;;;;;;;;;;;;;;24.71;31.33;99294.09;4465544;32;36689;-62
2022/09/13 12:18:09;;;;;;;;;;;;;;;25.19;31.58;99289.03;4471091;32;32700;-62
2022/09/13 12:20:41;;;;;;;;;;;;;;;24.90;31.05;99284.13;4476225;32;33807;-63
2022/09/13 12:23:13;;;;;;;;;;;;;;;25.34;30.62;99277.78;4480897;32;34009;-63
2022/09/13 12:25:44;;;;;;;;;;;;;;;25.15;30.90;99279.59;4452855;32;32800;-63
2022/09/13 12:28:15;;;;;;;;;;;;;;;24.85;31.60;99271.94;4475784;32;32764;-63
2022/09/13 12:30:47;;;;;;;;;;;;;;;24.81;31.59;99276.16;4465650;31;33733;-62
2022/09/13 12:33:15;;;;;;;;;;;;;;;25.29;30.91;99272.09;4454360;32;32838;-62
2022/09/13 12:36:01;;;;;;;;;;;;;;;24.65;32.34;99271.19;4472968;32;33991;-62
2022/09/13 12:38:35;;;;;;;;;;;;;;;24.53;32.84;99275.69;4467783;32;34209;-62
2022/09/13 12:41:03;;;;;;;;;;;;;;;25.13;32.63;99270.75;4477445;32;34306;-63
2022/09/13 12:43:49;;;;;;;;;;;;;;;25.28;32.40;99268.53;4465686;32;33539;-64
2022/09/13 12:46:26;;;;;;;;;;;;;;;25.39;31.99;99266.12;4478007;32;33573;-65
2022/09/13 12:49:08;;;;;;;;;;;;;;;24.95;32.15;99259.69;4458082;32;33810;-63
2022/09/13 12:51:41;;;;;;;;;;;;;;;25.23;31.80;99260.16;4454425;31;32067;-62
2022/09/13 12:54:21;;;;;;;;;;;;;;;25.23;31.28;99254.69;4468046;32;34809;-63
2022/09/13 12:57:07;;;;;;;;;;;;;;;25.43;31.07;99260.00;4471379;32;35104;-62
2022/09/13 12:59:38;;;;;;;;;;;;;;;25.45;31.02;99248.81;4470657;32;34748;-63
2022/09/13 13:02:41;;;;;;;;;;;;;;;25.58;30.85;99253.34;4477942;32;33812;-63
2022/09/13 13:05:37;;;;;;;;;;;;;;;25.09;31.96;99253.06;4413862;32;34530;-62
2022/09/13 13:08:25;;;;;;;;;;;;;;;24.57;33.30;99250.41;4451223;32;34258;-63
2022/09/13 13:11:06;;;;;;;;;;;;;;;25.36;32.32;99250.16;4476746;32;34504;-63